Time;durP1;ratioP1;P1;durP2;ratioP2;P2;SDS_P1;SDS_P2;PMS_P1;PMS_P2;Temp;Humidity;BMP_temperature;BMP_pressure;BME280_temperature;BME280_humidity;BME280_pressure;Samples;Min_cycle;Max_cycle;Signal;HPM_P1;HPM_P2
2022/04/25 00:00:34;;;;;;;2.33;1.93;;;12.20;91.20;;;;;;4979995;28;20869;-70
2022/04/25 00:03:03;;;;;;;1.70;1.60;;;12.20;91.00;;;;;;4981135;28;20222;-70
2022/04/25 00:05:30;;;;;;;1.90;1.80;;;12.20;90.90;;;;;;4983210;28;20219;-70
2022/04/25 00:07:57;;;;;;;2.00;1.73;;;12.20;90.80;;;;;;4987188;28;20236;-70
2022/04/25 00:10:24;;;;;;;6.53;2.10;;;12.20;90.70;;;;;;4987964;28;20265;-70
2022/04/25 00:12:52;;;;;;;2.40;2.13;;;12.20;90.60;;;;;;4986969;28;20241;-71
2022/04/25 00:15:20;;;;;;;2.33;2.13;;;12.20;90.50;;;;;;4969190;28;20217;-70
2022/04/25 00:17:48;;;;;;;2.40;2.20;;;12.10;90.60;;;;;;4984349;28;20321;-70
2022/04/25 00:20:15;;;;;;;2.70;2.50;;;12.10;90.70;;;;;;4984833;28;20245;-70
2022/04/25 00:22:42;;;;;;;4.97;2.60;;;12.10;90.70;;;;;;4989002;28;20651;-70
2022/04/25 00:25:09;;;;;;;3.10;2.23;;;12.00;90.80;;;;;;4990201;28;20205;-70
2022/04/25 00:27:36;;;;;;;3.43;2.40;;;12.00;90.80;;;;;;4981118;28;20298;-70
2022/04/25 00:30:04;;;;;;;2.03;1.87;;;11.90;90.80;;;;;;4989771;28;20552;-70
2022/04/25 00:32:31;;;;;;;2.30;2.10;;;11.80;90.80;;;;;;4991433;28;20205;-70
2022/04/25 00:34:58;;;;;;;2.53;2.13;;;11.80;90.80;;;;;;4961608;28;20215;-70
2022/04/25 00:37:25;;;;;;;3.37;2.10;;;11.70;90.90;;;;;;4980598;28;20305;-70
2022/04/25 00:39:52;;;;;;;3.83;2.17;;;11.70;90.90;;;;;;4977430;28;20228;-70
2022/04/25 00:42:20;;;;;;;4.37;1.83;;;11.70;91.00;;;;;;4979202;28;20230;-70
2022/04/25 00:44:47;;;;;;;2.17;1.87;;;11.60;91.00;;;;;;4972622;28;20200;-70
2022/04/25 00:47:15;;;;;;;4.97;1.50;;;11.60;91.00;;;;;;4977619;28;20211;-70
2022/04/25 00:49:42;;;;;;;1.60;1.30;;;11.60;90.90;;;;;;4991309;28;20357;-70
2022/04/25 00:52:09;;;;;;;2.13;1.37;;;11.60;90.90;;;;;;4991042;28;20216;-70
2022/04/25 00:54:36;;;;;;;1.50;1.40;;;11.60;90.80;;;;;;4989539;28;20211;-70
2022/04/25 00:57:04;;;;;;;2.17;1.57;;;11.60;90.70;;;;;;4974614;28;20288;-70
2022/04/25 00:59:32;;;;;;;5.57;1.57;;;11.50;90.50;;;;;;4982647;28;20222;-70
2022/04/25 01:01:59;;;;;;;1.57;1.40;;;11.50;90.40;;;;;;4980759;28;20214;-69
2022/04/25 01:04:27;;;;;;;1.07;1.07;;;11.60;90.40;;;;;;4984112;28;20288;-69
2022/04/25 01:06:54;;;;;;;2.77;1.30;;;11.50;90.40;;;;;;4984705;28;20225;-70
2022/04/25 01:09:24;;;;;;;1.63;1.10;;;11.50;90.30;;;;;;4985689;28;20234;-70
2022/04/25 01:11:52;;;;;;;1.40;1.20;;;11.50;90.20;;;;;;4983807;28;20710;-70
2022/04/25 01:14:20;;;;;;;2.27;1.33;;;11.50;90.10;;;;;;4966671;28;20706;-69
2022/04/25 01:16:48;;;;;;;1.70;1.30;;;11.60;90.10;;;;;;4988371;28;20249;-71
2022/04/25 01:19:15;;;;;;;3.27;1.20;;;11.50;90.00;;;;;;4988098;28;20221;-71
2022/04/25 01:21:54;;;;;;;2.10;1.07;;;11.50;89.90;;;;;;4988536;28;20244;-71
2022/04/25 01:27:18;;;;;;;1.60;1.27;;;11.50;89.50;;;;;;4974982;28;20215;-71
2022/04/25 01:29:50;;;;;;;1.73;1.10;;;11.50;89.60;;;;;;4992369;28;20664;-71
2022/04/25 01:32:19;;;;;;;1.57;1.47;;;11.40;89.60;;;;;;4966696;28;20237;-71
2022/04/25 01:34:46;;;;;;;4.13;1.30;;;11.40;89.60;;;;;;4959926;28;20232;-71
2022/04/25 01:37:15;;;;;;;1.90;1.37;;;11.40;89.70;;;;;;4985640;28;20221;-71
2022/04/25 01:39:48;;;;;;;1.80;1.30;;;11.30;89.70;;;;;;4979101;28;20301;-71
2022/04/25 01:42:16;;;;;;;1.40;1.10;;;11.30;89.70;;;;;;4991264;28;20238;-71
2022/04/25 01:44:44;;;;;;;1.90;1.13;;;11.20;89.80;;;;;;4989575;28;20537;-71
2022/04/25 01:47:12;;;;;;;2.67;1.23;;;11.20;89.90;;;;;;4990067;28;20268;-70
2022/04/25 01:49:39;;;;;;;1.47;1.33;;;11.20;90.00;;;;;;4986728;28;20226;-70
2022/04/25 01:52:18;;;;;;;1.50;1.03;;;11.10;90.00;;;;;;4993405;28;20296;-69
2022/04/25 01:54:47;;;;;;;1.30;1.20;;;11.10;90.00;;;;;;4967910;28;20210;-69
2022/04/25 01:57:14;;;;;;;1.70;1.20;;;11.10;90.00;;;;;;4986763;28;20222;-69
2022/04/25 01:59:43;;;;;;;3.13;1.47;;;11.10;90.30;;;;;;4984393;28;20297;-69
2022/04/25 02:02:11;;;;;;;1.27;1.17;;;11.10;90.00;;;;;;4967333;28;20473;-69
2022/04/25 02:04:39;;;;;;;0.90;0.90;;;11.10;90.00;;;;;;4965344;28;20299;-70
2022/04/25 02:07:08;;;;;;;1.53;0.97;;;11.10;90.00;;;;;;4968191;28;20608;-70
2022/04/25 02:09:36;;;;;;;1.10;1.00;;;11.10;89.80;;;;;;4981191;28;20267;-70
2022/04/25 02:12:05;;;;;;;1.03;1.00;;;11.10;89.70;;;;;;4961349;28;20229;-69
2022/04/25 02:14:32;;;;;;;1.30;1.20;;;11.10;89.80;;;;;;4985559;28;20201;-70
2022/04/25 02:17:01;;;;;;;2.43;1.07;;;11.10;89.80;;;;;;4990447;28;20231;-69
2022/04/25 02:19:29;;;;;;;3.33;1.17;;;11.10;89.70;;;;;;4987298;28;20216;-70
2022/04/25 02:21:57;;;;;;;1.10;1.00;;;11.00;89.40;;;;;;4973644;28;20301;-69
2022/04/25 02:24:24;;;;;;;1.47;1.00;;;11.00;89.20;;;;;;4980890;28;20205;-69
2022/04/25 02:26:51;;;;;;;3.47;1.20;;;10.90;88.90;;;;;;4974834;28;20236;-69
2022/04/25 02:29:22;;;;;;;1.83;1.37;;;10.90;89.00;;;;;;4976219;28;20229;-69
2022/04/25 02:31:49;;;;;;;0.83;0.83;;;10.90;88.90;;;;;;4976481;28;20209;-69
2022/04/25 02:34:17;;;;;;;2.77;1.33;;;10.80;89.00;;;;;;4977039;28;20217;-69
2022/04/25 02:36:45;;;;;;;5.53;0.90;;;10.80;89.50;;;;;;4978398;28;20260;-69
2022/04/25 02:39:12;;;;;;;1.17;1.07;;;10.70;89.80;;;;;;4982065;28;20329;-69
2022/04/25 02:41:39;;;;;;;1.13;1.03;;;10.70;89.80;;;;;;4983508;28;20234;-69
2022/04/25 02:44:07;;;;;;;1.70;1.00;;;10.70;89.60;;;;;;4986779;28;20233;-69
2022/04/25 02:46:34;;;;;;;1.57;1.20;;;10.70;89.60;;;;;;4992819;28;20296;-69
2022/04/25 02:49:01;;;;;;;2.60;1.20;;;10.60;89.80;;;;;;4990775;28;20220;-69
2022/04/25 02:51:29;;;;;;;1.97;1.10;;;10.60;89.80;;;;;;4995740;28;20600;-69
2022/04/25 02:53:56;;;;;;;2.10;0.93;;;10.60;90.20;;;;;;4974490;28;20623;-69
2022/04/25 02:56:24;;;;;;;3.97;1.30;;;10.60;89.90;;;;;;4990281;28;20197;-69
2022/04/25 02:58:51;;;;;;;1.97;1.00;;;10.60;89.90;;;;;;4973565;28;20229;-69
2022/04/25 03:01:18;;;;;;;1.60;1.00;;;10.50;90.00;;;;;;4956607;28;20713;-70
2022/04/25 03:03:46;;;;;;;1.17;1.00;;;10.50;90.00;;;;;;4993651;28;20204;-69
2022/04/25 03:06:16;;;;;;;2.33;1.30;;;10.50;90.00;;;;;;4996394;28;20629;-69
2022/04/25 03:08:43;;;;;;;1.07;0.83;;;10.50;90.00;;;;;;4974027;28;20256;-69
2022/04/25 03:11:10;;;;;;;1.37;0.93;;;10.50;90.10;;;;;;4975757;28;20683;-69
2022/04/25 03:13:40;;;;;;;1.77;1.00;;;10.40;89.40;;;;;;4993482;28;20252;-69
2022/04/25 03:16:08;;;;;;;1.63;1.10;;;10.40;89.20;;;;;;4988947;28;20724;-69
2022/04/25 03:18:36;;;;;;;1.43;0.80;;;10.30;89.60;;;;;;4989407;28;20253;-69
2022/04/25 03:21:05;;;;;;;1.23;0.80;;;10.30;89.90;;;;;;4989549;28;20204;-70
2022/04/25 03:23:36;;;;;;;1.27;0.80;;;10.20;90.00;;;;;;4987553;28;20640;-69
2022/04/25 03:26:04;;;;;;;2.40;1.00;;;10.20;90.10;;;;;;4986940;28;20217;-69
2022/04/25 03:28:31;;;;;;;1.17;0.93;;;10.20;90.20;;;;;;4990860;28;20213;-69
2022/04/25 03:30:59;;;;;;;1.00;0.90;;;10.20;90.20;;;;;;4992123;28;20304;-69
2022/04/25 03:33:31;;;;;;;1.07;0.97;;;10.20;90.30;;;;;;4988830;28;20211;-69
2022/04/25 03:36:00;;;;;;;1.20;0.90;;;10.20;90.30;;;;;;4986532;28;20277;-69
2022/04/25 03:38:28;;;;;;;1.67;1.03;;;10.20;90.20;;;;;;4988486;28;20233;-69
2022/04/25 03:40:56;;;;;;;1.33;0.97;;;10.10;90.20;;;;;;4988513;28;20221;-69
2022/04/25 03:43:24;;;;;;;2.87;0.97;;;10.10;90.20;;;;;;4987527;28;20208;-69
2022/04/25 03:45:51;;;;;;;1.93;1.20;;;10.10;90.30;;;;;;4991673;28;20205;-69
2022/04/25 03:48:20;;;;;;;2.87;1.00;;;10.10;90.40;;;;;;4985863;28;20240;-69
2022/04/25 03:50:48;;;;;;;2.73;1.10;;;10.10;90.40;;;;;;4990079;28;20208;-69
2022/04/25 03:53:15;;;;;;;1.17;1.07;;;10.00;90.30;;;;;;4985412;28;20236;-69
2022/04/25 03:58:28;;;;;;;2.07;1.00;;;10.00;90.50;;;;;;4986822;28;20598;-70
2022/04/25 04:00:55;;;;;;;3.70;1.10;;;10.00;90.60;;;;;;4991872;28;20205;-69
2022/04/25 04:03:23;;;;;;;1.40;1.30;;;10.00;90.70;;;;;;4989313;28;20695;-69
2022/04/25 04:05:52;;;;;;;1.20;1.10;;;10.00;90.80;;;;;;4984909;28;20210;-69
2022/04/25 04:08:20;;;;;;;1.43;1.07;;;10.00;90.80;;;;;;4969601;28;20300;-70
2022/04/25 04:10:47;;;;;;;2.17;0.93;;;10.00;90.90;;;;;;4987077;28;20212;-70
2022/04/25 04:13:15;;;;;;;1.33;1.07;;;10.00;90.80;;;;;;4987665;28;20240;-69
2022/04/25 04:15:42;;;;;;;1.40;1.30;;;10.00;90.80;;;;;;4978725;28;20520;-69
2022/04/25 04:18:10;;;;;;;1.20;1.10;;;10.00;90.60;;;;;;4986831;28;20217;-69
2022/04/25 04:20:37;;;;;;;2.60;1.10;;;10.00;90.50;;;;;;4987568;28;20217;-70
2022/04/25 04:23:05;;;;;;;1.10;0.90;;;10.00;90.50;;;;;;4986573;28;20201;-69
2022/04/25 04:25:33;;;;;;;1.70;1.10;;;10.00;90.60;;;;;;4972845;28;20259;-69
2022/04/25 04:28:02;;;;;;;1.37;1.27;;;10.00;90.80;;;;;;4986786;28;20554;-69
2022/04/25 04:30:29;;;;;;;1.00;0.97;;;10.00;90.90;;;;;;4992335;28;20216;-70
2022/04/25 04:32:59;;;;;;;2.13;1.30;;;10.00;91.00;;;;;;4997485;28;20205;-69
2022/04/25 04:38:12;;;;;;;1.63;0.97;;;10.00;91.10;;;;;;4986926;28;20229;-70
2022/04/25 04:40:39;;;;;;;1.13;1.07;;;10.10;91.10;;;;;;4985408;28;20225;-70
2022/04/25 04:43:07;;;;;;;2.37;1.00;;;10.10;91.10;;;;;;4990134;28;20204;-70
2022/04/25 04:45:34;;;;;;;1.10;1.00;;;10.10;91.10;;;;;;4975329;28;20224;-70
2022/04/25 04:48:01;;;;;;;2.00;1.33;;;10.10;91.00;;;;;;4986457;28;20220;-70
2022/04/25 04:50:29;;;;;;;3.60;1.13;;;10.20;90.90;;;;;;4988517;28;20623;-71
2022/04/25 04:52:58;;;;;;;1.17;1.00;;;10.20;90.90;;;;;;4968463;28;20677;-70
2022/04/25 04:55:26;;;;;;;4.07;1.60;;;10.20;90.80;;;;;;4984482;28;20300;-70
2022/04/25 04:57:55;;;;;;;1.73;1.17;;;10.30;90.70;;;;;;4985834;28;20236;-70
2022/04/25 05:00:23;;;;;;;1.30;1.00;;;10.30;90.60;;;;;;4987677;28;20205;-71
2022/04/25 05:02:51;;;;;;;1.73;0.93;;;10.40;90.70;;;;;;4969060;28;20229;-71
2022/04/25 05:05:19;;;;;;;0.87;0.87;;;10.40;90.90;;;;;;4970069;28;20218;-71
2022/04/25 05:07:47;;;;;;;4.80;1.47;;;10.50;91.00;;;;;;4985275;28;20207;-70
2022/04/25 05:10:15;;;;;;;1.43;0.87;;;10.60;91.10;;;;;;4983701;28;20222;-71
2022/04/25 05:12:50;;;;;;;1.10;1.00;;;10.70;91.20;;;;;;4971333;28;20336;-70
2022/04/25 05:15:20;;;;;;;5.10;1.30;;;10.80;91.20;;;;;;4969688;28;20225;-70
2022/04/25 05:17:50;;;;;;;1.53;1.30;;;10.90;91.00;;;;;;4986616;28;20224;-70
2022/04/25 05:20:19;;;;;;;0.87;0.87;;;11.00;90.90;;;;;;4983386;28;20218;-71
2022/04/25 05:22:47;;;;;;;3.03;1.00;;;11.10;90.80;;;;;;4985121;28;20481;-70
2022/04/25 05:25:19;;;;;;;1.93;0.93;;;11.30;90.90;;;;;;4967038;28;20601;-71
2022/04/25 05:27:49;;;;;;;1.87;0.83;;;11.70;90.70;;;;;;4987677;28;20206;-70
2022/04/25 05:30:18;;;;;;;1.30;1.00;;;12.20;90.20;;;;;;4985382;28;20211;-70
2022/04/25 05:32:48;;;;;;;0.53;0.53;;;12.70;88.70;;;;;;4983882;28;20235;-71
2022/04/25 05:35:17;;;;;;;1.33;0.70;;;13.00;87.30;;;;;;4986715;28;20257;-70
2022/04/25 05:37:44;;;;;;;1.13;0.70;;;13.30;87.10;;;;;;4983430;28;20225;-70
2022/04/25 05:40:14;;;;;;;1.20;0.83;;;13.30;86.00;;;;;;4984802;28;20294;-71
2022/04/25 05:42:42;;;;;;;1.20;1.10;;;13.40;85.90;;;;;;4982667;28;20287;-71
2022/04/25 05:45:10;;;;;;;2.07;0.90;;;13.40;86.00;;;;;;4988078;28;20519;-71
2022/04/25 05:47:37;;;;;;;1.67;0.90;;;13.40;85.70;;;;;;4985065;28;20252;-71
2022/04/25 05:52:55;;;;;;;2.63;1.17;;;13.50;85.60;;;;;;4985040;28;20634;-71
2022/04/25 05:55:23;;;;;;;1.60;0.97;;;13.60;85.70;;;;;;4969734;28;20568;-71
2022/04/25 05:57:50;;;;;;;0.80;0.80;;;13.70;85.90;;;;;;4984318;28;20224;-71
2022/04/25 06:00:25;;;;;;;1.50;1.00;;;13.70;86.20;;;;;;4986408;28;20280;-71
2022/04/25 06:02:52;;;;;;;0.97;0.97;;;13.90;86.50;;;;;;4985373;28;20203;-70
2022/04/25 06:05:20;;;;;;;1.20;1.03;;;14.00;86.60;;;;;;4949405;28;20224;-70
2022/04/25 06:07:48;;;;;;;0.60;0.60;;;14.20;86.50;;;;;;4980914;28;20231;-70
2022/04/25 06:10:17;;;;;;;1.03;0.80;;;14.40;86.00;;;;;;4987827;28;20296;-70
2022/04/25 06:12:53;;;;;;;1.10;1.00;;;14.50;85.80;;;;;;4967538;28;20244;-71
2022/04/25 06:15:24;;;;;;;3.57;0.97;;;14.70;86.40;;;;;;4985157;28;20509;-71
2022/04/25 06:17:54;;;;;;;3.23;0.90;;;14.90;86.30;;;;;;4968022;28;20283;-71
2022/04/25 06:20:22;;;;;;;1.10;0.80;;;15.00;86.00;;;;;;4984254;28;20283;-70
2022/04/25 06:22:54;;;;;;;1.30;1.00;;;15.20;85.90;;;;;;4965352;28;20207;-70
2022/04/25 06:25:23;;;;;;;4.63;0.93;;;15.40;85.70;;;;;;4987486;28;20206;-70
2022/04/25 06:27:50;;;;;;;0.90;0.73;;;15.60;84.60;;;;;;4985768;28;20211;-70
2022/04/25 06:30:17;;;;;;;1.67;0.83;;;15.70;81.80;;;;;;4982590;28;20230;-70
2022/04/25 06:32:44;;;;;;;2.07;0.90;;;15.80;81.50;;;;;;4976607;28;20249;-70
2022/04/25 06:35:12;;;;;;;2.60;0.90;;;16.00;81.30;;;;;;4982580;28;20285;-71
2022/04/25 06:37:39;;;;;;;1.80;1.20;;;16.10;80.60;;;;;;4985759;28;20228;-71
2022/04/25 06:40:08;;;;;;;2.67;1.30;;;16.20;79.60;;;;;;4965157;28;20227;-70
2022/04/25 06:42:35;;;;;;;2.17;0.90;;;16.40;77.30;;;;;;4981187;28;20208;-70
2022/04/25 06:45:03;;;;;;;2.53;0.93;;;16.50;75.90;;;;;;4984837;28;20300;-71
2022/04/25 06:47:30;;;;;;;2.83;1.00;;;16.60;75.20;;;;;;4949916;28;20579;-71
2022/04/25 06:49:57;;;;;;;1.20;0.90;;;16.70;74.30;;;;;;4984916;28;20310;-71
2022/04/25 06:52:24;;;;;;;4.10;1.33;;;16.80;74.40;;;;;;4989893;28;20725;-71
2022/04/25 06:54:52;;;;;;;1.87;1.23;;;16.90;73.10;;;;;;4981523;28;20604;-71
2022/04/25 06:57:19;;;;;;;4.77;1.37;;;17.00;72.40;;;;;;4988414;28;20209;-71
2022/04/25 06:59:47;;;;;;;2.57;1.60;;;17.10;71.70;;;;;;4976776;28;20459;-71
2022/04/25 07:02:15;;;;;;;1.93;1.10;;;17.10;69.80;;;;;;4954084;28;20205;-71
2022/04/25 07:04:43;;;;;;;1.50;0.97;;;17.20;69.70;;;;;;4980450;28;20320;-71
2022/04/25 07:07:10;;;;;;;1.43;0.93;;;17.20;69.30;;;;;;4966605;28;20214;-71
2022/04/25 07:09:37;;;;;;;3.63;1.20;;;17.30;70.10;;;;;;4965238;28;20324;-70
2022/04/25 07:12:05;;;;;;;1.20;1.10;;;17.50;69.90;;;;;;4983640;28;20251;-71
2022/04/25 07:14:33;;;;;;;1.30;0.97;;;17.50;69.10;;;;;;4977477;28;20219;-71
2022/04/25 07:17:03;;;;;;;3.73;1.57;;;17.60;68.10;;;;;;4964948;28;20210;-71
2022/04/25 07:19:31;;;;;;;3.67;1.63;;;17.70;68.00;;;;;;4968070;28;20235;-72
2022/04/25 07:30:27;;;;;;;3.87;1.50;;;17.90;66.40;;;;;;4969069;28;20223;-71
2022/04/25 07:32:55;;;;;;;2.60;1.43;;;18.10;65.50;;;;;;4985946;28;20235;-71
2022/04/25 07:35:22;;;;;;;5.80;1.60;;;18.10;65.20;;;;;;4986133;28;20259;-71
2022/04/25 07:37:49;;;;;;;3.43;1.40;;;18.20;65.20;;;;;;4984021;28;20296;-71
2022/04/25 07:40:16;;;;;;;2.30;1.50;;;18.20;64.70;;;;;;4987178;28;20225;-71
2022/04/25 07:42:44;;;;;;;2.03;1.43;;;18.30;64.50;;;;;;4989815;28;20528;-71
2022/04/25 07:45:11;;;;;;;3.00;1.33;;;18.30;64.50;;;;;;4992399;28;20225;-72
2022/04/25 07:47:42;;;;;;;1.93;1.57;;;18.30;64.40;;;;;;4990595;28;20229;-72
2022/04/25 07:50:10;;;;;;;4.30;1.70;;;18.50;64.70;;;;;;4986258;28;20656;-72
2022/04/25 07:52:38;;;;;;;2.67;1.00;;;18.60;64.60;;;;;;4971248;28;20225;-72
2022/04/25 07:55:07;;;;;;;2.60;1.10;;;18.60;63.50;;;;;;4990577;28;20232;-72
2022/04/25 07:57:35;;;;;;;1.83;1.33;;;18.70;61.10;;;;;;4971863;28;20224;-72
2022/04/25 08:00:06;;;;;;;3.00;1.17;;;18.70;61.70;;;;;;4969647;28;20290;-71
2022/04/25 08:02:33;;;;;;;2.17;1.10;;;18.80;61.20;;;;;;4986514;28;20714;-71
2022/04/25 08:05:01;;;;;;;3.07;1.33;;;18.80;62.20;;;;;;4986838;28;20220;-71
2022/04/25 08:07:29;;;;;;;2.70;1.07;;;18.90;61.40;;;;;;4991407;28;20680;-72
2022/04/25 08:09:56;;;;;;;2.53;1.20;;;18.90;61.70;;;;;;4986239;28;20265;-72
2022/04/25 08:18:01;;;;;;;4.13;1.70;;;18.90;60.40;;;;;;4987869;28;20241;-71
2022/04/25 08:20:29;;;;;;;2.27;1.20;;;18.90;60.00;;;;;;4970416;28;20308;-72
2022/04/25 08:22:57;;;;;;;1.13;1.00;;;18.90;61.10;;;;;;4987864;28;20214;-72
2022/04/25 08:25:25;;;;;;;1.83;1.00;;;19.00;61.30;;;;;;4987446;28;20196;-71
2022/04/25 08:27:53;;;;;;;1.77;1.00;;;19.20;61.10;;;;;;4988586;28;20220;-71
2022/04/25 08:30:21;;;;;;;2.47;1.40;;;19.30;60.20;;;;;;4986303;28;20255;-72
2022/04/25 08:32:48;;;;;;;2.73;0.90;;;19.40;60.30;;;;;;4965870;28;20630;-71
2022/04/25 08:35:16;;;;;;;1.90;1.10;;;19.40;61.80;;;;;;4985856;28;20644;-71
2022/04/25 08:37:43;;;;;;;5.07;1.43;;;19.50;59.90;;;;;;4986036;28;20214;-71
2022/04/25 08:40:11;;;;;;;1.53;0.80;;;19.60;60.40;;;;;;4954154;28;20275;-72
2022/04/25 08:42:38;;;;;;;2.63;1.20;;;19.70;61.70;;;;;;4987408;28;20685;-71
2022/04/25 08:45:12;;;;;;;3.73;1.03;;;19.90;60.70;;;;;;4987633;28;20235;-71
2022/04/25 08:47:51;;;;;;;3.53;1.10;;;20.00;57.20;;;;;;4985956;28;20214;-72
2022/04/25 08:50:18;;;;;;;3.03;1.20;;;20.00;57.50;;;;;;4988074;28;20633;-72
2022/04/25 08:52:46;;;;;;;2.00;1.30;;;20.10;59.00;;;;;;4967179;28;20628;-72
2022/04/25 08:55:15;;;;;;;3.37;1.50;;;20.30;60.20;;;;;;4984719;28;20642;-72
2022/04/25 08:57:48;;;;;;;3.17;1.10;;;20.50;59.00;;;;;;4987946;28;20211;-72
2022/04/25 09:00:15;;;;;;;3.13;1.00;;;20.60;58.90;;;;;;4974388;28;20231;-71
2022/04/25 09:02:44;;;;;;;1.27;0.90;;;20.80;59.40;;;;;;4985658;28;20216;-72
2022/04/25 09:05:13;;;;;;;2.00;0.63;;;21.00;58.50;;;;;;4968077;28;20439;-73
2022/04/25 09:07:41;;;;;;;3.87;1.17;;;21.10;55.20;;;;;;4973284;28;20212;-73
2022/04/25 09:10:12;;;;;;;1.73;0.73;;;21.10;56.40;;;;;;4987899;28;20654;-72
2022/04/25 09:12:42;;;;;;;2.47;0.93;;;21.10;56.70;;;;;;4986827;28;20267;-73
2022/04/25 09:15:19;;;;;;;2.10;0.80;;;21.20;56.20;;;;;;4985793;28;20219;-72
2022/04/25 09:17:55;;;;;;;1.10;0.63;;;21.20;56.00;;;;;;4986734;28;20217;-72
2022/04/25 09:20:24;;;;;;;0.77;0.67;;;21.30;55.40;;;;;;4986772;28;20665;-72
2022/04/25 09:22:52;;;;;;;1.43;0.90;;;21.30;56.60;;;;;;4985623;28;20208;-72
2022/04/25 09:25:20;;;;;;;1.70;0.80;;;21.50;57.60;;;;;;4986229;28;20235;-72
2022/04/25 09:28:09;;;;;;;2.10;0.80;;;21.60;56.30;;;;;;4969960;28;20250;-72
2022/04/25 09:30:37;;;;;;;1.53;0.80;;;21.60;55.40;;;;;;4989717;28;20207;-73
2022/04/25 09:33:21;;;;;;;0.67;0.47;;;21.70;54.40;;;;;;4985968;28;20212;-73
2022/04/25 09:35:58;;;;;;;2.03;0.80;;;21.90;55.20;;;;;;4985724;28;20205;-73
2022/04/25 09:38:33;;;;;;;1.73;0.70;;;22.10;54.20;;;;;;4995960;28;20234;-72
2022/04/25 09:41:01;;;;;;;1.00;0.73;;;22.10;53.70;;;;;;4988895;28;20188;-72
2022/04/25 09:43:38;;;;;;;10.57;3.13;;;22.20;54.20;;;;;;4980299;28;20307;-73
2022/04/25 09:46:10;;;;;;;0.70;0.70;;;22.20;54.50;;;;;;4986135;28;20197;-73
2022/04/25 09:48:41;;;;;;;1.57;0.60;;;22.30;54.80;;;;;;4987626;28;20220;-73
2022/04/25 09:51:17;;;;;;;0.67;0.60;;;22.50;54.70;;;;;;4985085;28;20217;-72
2022/04/25 09:53:52;;;;;;;0.60;0.60;;;22.80;53.70;;;;;;4969207;28;20208;-73
2022/04/25 09:56:25;;;;;;;2.73;0.80;;;23.00;52.30;;;;;;4969640;28;20299;-73
2022/04/25 09:59:02;;;;;;;2.63;0.97;;;23.20;51.40;;;;;;4986696;28;20627;-72
2022/04/25 10:01:30;;;;;;;1.57;0.70;;;23.20;51.40;;;;;;4971528;28;20218;-73
2022/04/25 10:03:58;;;;;;;1.27;0.57;;;23.10;51.70;;;;;;4987823;28;20684;-72
2022/04/25 10:06:27;;;;;;;1.47;0.70;;;23.00;51.90;;;;;;4990648;28;20188;-73
2022/04/25 10:08:55;;;;;;;2.40;0.70;;;22.80;53.50;;;;;;4974047;28;20308;-73
2022/04/25 10:11:27;;;;;;;1.20;0.70;;;22.60;53.40;;;;;;4985050;28;20228;-73
2022/04/25 10:13:55;;;;;;;1.93;0.63;;;22.40;53.80;;;;;;4988526;28;20251;-73
2022/04/25 10:16:24;;;;;;;2.10;0.93;;;22.40;53.90;;;;;;4989346;28;20640;-72
2022/04/25 10:18:53;;;;;;;1.73;0.90;;;22.40;52.60;;;;;;4973744;28;20708;-72
2022/04/25 10:21:22;;;;;;;2.73;0.83;;;22.40;53.40;;;;;;4985628;28;20240;-72
2022/04/25 10:23:49;;;;;;;1.93;0.60;;;22.40;53.60;;;;;;4968443;28;20263;-72
2022/04/25 10:26:17;;;;;;;2.00;1.33;;;22.40;53.10;;;;;;4985381;28;20271;-73
2022/04/25 10:28:48;;;;;;;1.70;0.67;;;22.50;52.70;;;;;;4969474;28;20607;-72
2022/04/25 10:31:29;;;;;;;1.17;0.60;;;22.50;53.20;;;;;;4974429;28;20204;-73
2022/04/25 10:34:02;;;;;;;0.60;0.50;;;22.60;52.50;;;;;;4983831;28;20207;-73
2022/04/25 10:36:38;;;;;;;4.17;0.80;;;22.70;52.10;;;;;;4986802;28;20239;-72
2022/04/25 10:39:24;;;;;;;2.27;0.83;;;22.70;53.20;;;;;;4971539;28;20292;-73
2022/04/25 10:44:42;;;;;;;2.30;0.90;;;22.60;53.40;;;;;;4983829;28;20216;-72
2022/04/25 10:47:14;;;;;;;1.43;0.70;;;22.80;53.10;;;;;;4990855;28;20218;-72
2022/04/25 10:49:45;;;;;;;1.00;0.60;;;22.90;53.40;;;;;;4986470;28;20221;-73
2022/04/25 10:52:34;;;;;;;2.10;0.93;;;22.90;53.00;;;;;;4973653;28;20209;-72
2022/04/25 10:55:29;;;;;;;1.67;0.73;;;22.90;52.40;;;;;;4989644;28;20473;-73
2022/04/25 10:58:03;;;;;;;1.90;0.67;;;22.90;52.70;;;;;;4988910;28;20290;-72
2022/04/25 11:00:39;;;;;;;1.63;0.87;;;22.80;53.40;;;;;;4979560;28;20660;-73
2022/04/25 11:03:25;;;;;;;1.93;0.90;;;22.60;51.70;;;;;;4969724;28;20219;-72
2022/04/25 11:05:55;;;;;;;2.80;1.00;;;22.40;54.10;;;;;;4988898;28;20215;-72
2022/04/25 11:08:26;;;;;;;1.57;0.77;;;22.20;54.80;;;;;;4990839;28;20660;-72
2022/04/25 11:11:08;;;;;;;2.30;1.00;;;22.10;53.30;;;;;;4988813;28;20300;-72
2022/04/25 11:14:01;;;;;;;1.53;0.70;;;21.90;53.80;;;;;;4990992;28;20248;-71
2022/04/25 11:16:28;;;;;;;0.83;0.60;;;21.70;55.10;;;;;;4979400;28;20224;-72
2022/04/25 11:19:09;;;;;;;3.27;1.13;;;21.70;54.20;;;;;;4987241;28;20216;-72
2022/04/25 11:21:46;;;;;;;1.70;0.93;;;21.80;54.70;;;;;;4987724;28;20307;-72
2022/04/25 11:24:28;;;;;;;3.00;0.80;;;21.90;56.30;;;;;;4984143;28;20223;-72
2022/04/25 11:26:58;;;;;;;0.80;0.73;;;21.90;53.80;;;;;;4986416;28;20608;-72
2022/04/25 11:29:25;;;;;;;1.87;1.00;;;21.90;53.10;;;;;;4987327;28;20641;-71
2022/04/25 11:32:35;;;;;;;1.70;0.70;;;21.80;55.60;;;;;;4982244;28;20620;-72
2022/04/25 11:35:04;;;;;;;1.40;1.00;;;21.70;58.00;;;;;;4972360;28;20216;-72
2022/04/25 11:37:33;;;;;;;1.47;1.10;;;21.80;58.70;;;;;;4969250;28;20292;-71
2022/04/25 11:40:09;;;;;;;2.60;1.20;;;22.10;58.70;;;;;;4985170;28;20564;-71
2022/04/25 11:42:37;;;;;;;1.30;0.90;;;22.30;57.40;;;;;;4985995;28;20527;-71
2022/04/25 11:45:05;;;;;;;1.33;0.50;;;22.50;55.00;;;;;;4969799;28;20302;-71
2022/04/25 11:47:33;;;;;;;1.17;0.90;;;22.60;55.40;;;;;;4987959;28;20603;-71
2022/04/25 11:50:06;;;;;;;4.53;1.73;;;22.50;55.30;;;;;;4969322;28;20237;-72
2022/04/25 11:52:33;;;;;;;3.73;1.27;;;22.50;55.80;;;;;;4996180;28;20296;-72
2022/04/25 11:55:00;;;;;;;1.07;0.80;;;22.60;55.40;;;;;;4988194;28;20255;-72
2022/04/25 11:57:28;;;;;;;2.47;0.87;;;22.60;54.30;;;;;;4983577;28;20220;-72
2022/04/25 12:00:08;;;;;;;2.80;0.83;;;22.40;53.90;;;;;;4970092;28;20739;-72
2022/04/25 12:02:38;;;;;;;1.60;0.83;;;22.20;55.50;;;;;;4971343;28;20670;-72
2022/04/25 12:05:07;;;;;;;0.97;0.87;;;22.00;56.70;;;;;;4990294;28;20239;-72
2022/04/25 12:07:35;;;;;;;1.90;1.00;;;22.10;59.00;;;;;;4986324;28;20539;-72
2022/04/25 12:15:40;;;;;;;4.20;1.00;;;22.70;56.70;;;;;;4986519;28;20295;-72
2022/04/25 12:18:14;;;;;;;2.77;1.07;;;23.00;55.80;;;;;;4982045;28;20200;-72
2022/04/25 12:20:44;;;;;;;1.60;1.07;;;23.20;54.80;;;;;;4988755;28;20287;-72
2022/04/25 12:23:21;;;;;;;1.60;0.93;;;23.10;54.40;;;;;;4991932;28;20209;-72
2022/04/25 12:25:49;;;;;;;1.07;0.90;;;22.90;56.30;;;;;;4985613;28;20231;-72
2022/04/25 12:28:20;;;;;;;1.63;0.87;;;22.70;57.10;;;;;;4985282;28;20217;-72
2022/04/25 12:30:56;;;;;;;2.27;0.90;;;22.50;56.90;;;;;;4988835;28;20200;-72
2022/04/25 12:33:35;;;;;;;0.70;0.70;;;22.30;58.00;;;;;;4990380;28;20200;-72
2022/04/25 12:36:22;;;;;;;2.00;0.80;;;22.40;58.60;;;;;;4971565;28;20648;-72
2022/04/25 12:38:56;;;;;;;0.87;0.87;;;22.50;58.00;;;;;;4986899;28;20228;-72
2022/04/25 12:41:27;;;;;;;1.27;0.80;;;22.70;56.80;;;;;;4989391;28;20243;-72
2022/04/25 12:43:56;;;;;;;1.50;0.70;;;22.70;55.90;;;;;;4984978;28;20271;-72
2022/04/25 12:46:44;;;;;;;1.50;0.90;;;22.50;56.40;;;;;;4986142;28;20216;-71
2022/04/25 12:49:31;;;;;;;1.10;0.90;;;22.30;57.40;;;;;;4986050;28;20271;-72
2022/04/25 12:51:59;;;;;;;2.40;1.13;;;22.00;56.90;;;;;;4992926;28;20208;-72
2022/04/25 12:54:41;;;;;;;1.60;0.83;;;21.90;59.00;;;;;;4967569;28;20313;-71
2022/04/25 12:57:18;;;;;;;1.37;0.90;;;21.80;57.90;;;;;;4967962;28;20288;-71
2022/04/25 12:59:48;;;;;;;2.03;0.90;;;21.90;58.70;;;;;;4983443;28;20232;-71
2022/04/25 13:02:17;;;;;;;1.07;0.80;;;22.30;58.10;;;;;;4985239;28;20649;-71
2022/04/25 13:04:53;;;;;;;1.23;0.90;;;22.40;57.40;;;;;;4987620;28;20404;-71
2022/04/25 13:07:30;;;;;;;0.87;0.87;;;22.50;58.70;;;;;;4987020;28;20640;-72
2022/04/25 13:10:00;;;;;;;1.40;0.80;;;22.40;58.40;;;;;;4966032;28;20555;-72
2022/04/25 13:12:44;;;;;;;1.23;0.73;;;22.30;58.30;;;;;;4986274;28;20294;-72
2022/04/25 13:15:17;;;;;;;3.80;1.20;;;22.30;59.70;;;;;;4984459;28;20490;-71
2022/04/25 13:17:45;;;;;;;2.80;1.00;;;22.30;60.00;;;;;;4967037;28;20225;-71
2022/04/25 13:20:15;;;;;;;3.70;0.90;;;22.20;59.80;;;;;;4983710;28;20425;-71
2022/04/25 13:22:43;;;;;;;1.83;1.20;;;22.30;60.50;;;;;;4982988;28;20271;-71
2022/04/25 13:25:11;;;;;;;0.90;0.80;;;22.40;58.90;;;;;;4985792;28;20205;-71
2022/04/25 13:27:39;;;;;;;3.50;0.97;;;22.30;59.70;;;;;;4985319;28;20224;-71
2022/04/25 13:30:12;;;;;;;1.57;0.93;;;22.30;58.70;;;;;;4983116;28;20216;-72
2022/04/25 13:32:43;;;;;;;4.10;1.00;;;22.20;58.80;;;;;;4977325;28;20228;-71
2022/04/25 13:35:17;;;;;;;1.57;0.97;;;22.10;59.30;;;;;;4986479;28;20227;-71